createdAt,value
2023-02-15T00:01:13.516Z,30.05
2023-02-15T00:06:16.144Z,28.15
2023-02-15T00:11:38.232Z,32.72
2023-02-15T00:16:41.924Z,26.55
2023-02-15T00:21:48.057Z,27.95
2023-02-15T00:26:50.718Z,26.42
2023-02-15T00:31:53.603Z,29.00
2023-02-15T00:36:55.811Z,23.95
2023-02-15T00:41:58.107Z,25.98
2023-02-15T00:47:00.346Z,25.50
2023-02-15T00:52:02.536Z,27.85
2023-02-15T00:57:04.783Z,23.13
2023-02-15T01:02:06.958Z,29.00
2023-02-15T01:07:09.185Z,25.83
2023-02-15T01:12:11.378Z,27.17
2023-02-15T01:17:13.535Z,28.42
2023-02-15T01:22:15.842Z,23.08
2023-02-15T01:27:18.146Z,30.67
2023-02-15T01:32:20.387Z,26.42
2023-02-15T01:37:22.559Z,24.42
2023-02-15T01:42:26.088Z,26.30
2023-02-15T01:47:45.518Z,26.38
2023-02-15T01:53:03.291Z,28.45
2023-02-15T01:58:05.752Z,26.58
2023-02-15T02:03:08.378Z,28.23
2023-02-15T02:08:11.026Z,28.58
2023-02-15T02:13:13.328Z,27.48
2023-02-15T02:18:33.310Z,31.90
2023-02-15T02:24:01.950Z,27.23
2023-02-15T02:29:28.971Z,27.90
2023-02-15T02:34:58.172Z,26.38
2023-02-15T02:40:12.586Z,23.90
2023-02-15T02:45:52.532Z,24.20
2023-02-15T02:50:54.703Z,24.67
2023-02-15T02:56:22.791Z,26.52
2023-02-15T03:01:33.827Z,27.77
2023-02-15T03:06:52.327Z,32.60
2023-02-15T03:11:54.635Z,30.15
2023-02-15T03:16:57.707Z,28.23
2023-02-15T03:22:10.561Z,38.63
2023-02-15T03:27:19.528Z,29.83
2023-02-15T03:32:23.131Z,29.13
2023-02-15T03:37:38.835Z,28.20
2023-02-15T03:42:42.004Z,32.13
2023-02-15T03:47:48.628Z,33.92
2023-02-15T03:52:51.046Z,31.27
2023-02-15T03:58:12.466Z,30.33
2023-02-15T04:03:17.446Z,26.05
2023-02-15T04:08:19.650Z,28.60
2023-02-15T04:13:32.814Z,26.95
2023-02-15T04:18:57.545Z,30.48
2023-02-15T04:24:18.480Z,26.08
2023-02-15T04:29:24.867Z,32.45
2023-02-15T04:34:27.545Z,29.10
2023-02-15T04:39:33.611Z,29.55
2023-02-15T04:44:35.873Z,39.65
2023-02-15T04:49:38.006Z,28.80
2023-02-15T04:54:40.444Z,31.77
2023-02-15T04:59:42.746Z,29.10
2023-02-15T05:04:45.091Z,33.88
2023-02-15T05:09:47.518Z,29.65
2023-02-15T05:14:49.805Z,38.15
2023-02-15T05:19:52.164Z,37.75
2023-02-15T05:25:12.864Z,31.20
2023-02-15T05:30:15.555Z,26.50
2023-02-15T05:35:18.272Z,33.95
2023-02-15T05:40:20.397Z,37.13
2023-02-15T05:45:22.585Z,40.13
2023-02-15T05:50:24.742Z,48.60
2023-02-15T05:55:27.036Z,49.97
2023-02-15T06:00:29.184Z,37.95
2023-02-15T06:05:31.863Z,41.42
2023-02-15T06:10:34.136Z,44.05
2023-02-15T06:15:36.403Z,41.72
2023-02-15T06:20:38.700Z,45.28
2023-02-15T06:25:40.958Z,44.45
2023-02-15T06:30:43.216Z,47.83
2023-02-15T06:35:47.473Z,36.97
2023-02-15T06:40:49.767Z,35.90
2023-02-15T06:45:52.149Z,34.20
2023-02-15T06:50:54.342Z,41.92
2023-02-15T06:56:04.510Z,43.47
2023-02-15T07:01:10.367Z,43.05
2023-02-15T07:06:13.259Z,42.55
2023-02-15T07:11:33.907Z,44.00
2023-02-15T07:16:36.047Z,49.05
2023-02-15T07:21:38.569Z,41.67
2023-02-15T07:26:40.833Z,37.28
2023-02-15T07:31:47.687Z,38.10
2023-02-15T07:36:52.420Z,37.08
2023-02-15T07:41:54.837Z,45.67
2023-02-15T07:46:57.820Z,34.30
2023-02-15T07:52:02.147Z,34.70
2023-02-15T07:57:04.476Z,35.65
2023-02-15T08:02:11.509Z,30.88
2023-02-15T08:07:13.716Z,28.45
2023-02-15T08:12:15.853Z,28.13
2023-02-15T08:17:18.103Z,28.80
2023-02-15T08:22:20.273Z,24.30
2023-02-15T08:27:27.997Z,30.50
2023-02-15T08:32:30.080Z,25.27
2023-02-15T08:37:32.384Z,24.55
2023-02-15T08:42:35.696Z,30.42
2023-02-15T08:47:37.882Z,30.83
2023-02-15T08:52:40.049Z,28.15
2023-02-15T08:57:46.206Z,32.60
2023-02-15T09:02:48.381Z,27.73
2023-02-15T09:07:50.662Z,27.40
2023-02-15T09:12:53.920Z,33.25
2023-02-15T09:18:02.732Z,26.08
2023-02-15T09:23:04.944Z,23.25
2023-02-15T09:28:07.178Z,26.17
2023-02-15T09:33:09.401Z,25.42
2023-02-15T09:38:13.468Z,25.85
2023-02-15T09:43:34.563Z,23.08
2023-02-15T09:48:41.813Z,19.92
2023-02-15T09:54:12.675Z,21.83
2023-02-15T09:59:42.614Z,25.05
2023-02-15T10:05:22.132Z,25.67
2023-02-15T10:10:49.008Z,24.58
2023-02-15T10:16:17.981Z,25.73
2023-02-15T10:21:41.645Z,18.77
2023-02-15T10:26:47.836Z,18.85
2023-02-15T10:31:56.577Z,18.40
2023-02-15T10:37:10.678Z,21.60
2023-02-15T10:42:36.244Z,24.05
2023-02-15T10:47:53.679Z,22.52
2023-02-15T10:53:30.797Z,19.30
2023-02-15T10:58:35.521Z,19.55
2023-02-15T11:03:43.155Z,20.40
2023-02-15T11:08:52.943Z,19.15
2023-02-15T11:14:01.355Z,19.63
2023-02-15T11:19:49.050Z,22.48
2023-02-15T11:24:51.548Z,17.23
2023-02-15T11:30:02.324Z,23.00
2023-02-15T11:35:13.818Z,20.33
2023-02-15T11:40:29.738Z,16.77
2023-02-15T11:45:35.710Z,20.20
2023-02-15T11:50:38.533Z,24.05
2023-02-15T11:55:41.285Z,19.00
2023-02-15T12:00:47.210Z,16.42
2023-02-15T12:05:54.974Z,17.02
2023-02-15T12:11:09.486Z,13.80
2023-02-15T12:16:14.265Z,16.35
2023-02-15T12:21:30.477Z,16.35
2023-02-15T12:26:36.503Z,17.02
2023-02-15T12:31:42.103Z,15.27
2023-02-15T12:36:48.268Z,15.65
2023-02-15T12:41:56.423Z,15.55
2023-02-15T12:47:05.101Z,16.58
2023-02-15T12:52:25.602Z,14.95
2023-02-15T12:57:30.977Z,13.40
2023-02-15T13:02:49.562Z,14.73
2023-02-15T13:07:57.237Z,18.00
2023-02-15T13:12:59.889Z,15.05
2023-02-15T13:18:04.285Z,15.38
2023-02-15T13:23:14.885Z,12.43
2023-02-15T13:28:20.013Z,16.40
2023-02-15T13:33:33.110Z,13.85
2023-02-15T13:38:46.303Z,12.60
2023-02-15T13:43:52.219Z,13.05
2023-02-15T13:49:18.015Z,14.65
2023-02-15T13:54:26.423Z,15.10
2023-02-15T13:59:46.734Z,13.20
2023-02-15T14:05:18.018Z,15.05
2023-02-15T14:10:29.268Z,12.30
2023-02-15T14:15:36.066Z,14.65
2023-02-15T14:21:15.642Z,12.05
2023-02-15T14:26:35.644Z,13.85
2023-02-15T14:31:47.284Z,11.27
2023-02-15T14:36:52.261Z,11.82
2023-02-15T14:42:01.160Z,11.82
2023-02-15T14:47:13.145Z,11.33
2023-02-15T14:52:15.342Z,12.07
2023-02-15T14:57:17.595Z,10.80
2023-02-15T15:02:43.508Z,11.25
2023-02-15T15:07:59.143Z,10.40
2023-02-15T15:13:30.135Z,11.90
2023-02-15T15:18:45.732Z,12.80
2023-02-15T15:23:48.227Z,13.57
2023-02-15T15:28:50.358Z,10.85
2023-02-15T15:34:10.998Z,16.95
2023-02-15T15:39:56.494Z,13.93
2023-02-15T15:45:27.999Z,14.63
2023-02-15T15:50:30.649Z,16.50
2023-02-15T15:55:35.096Z,19.92
2023-02-15T16:00:46.165Z,19.17
2023-02-15T16:05:54.081Z,20.95
2023-02-15T16:10:56.816Z,25.48
2023-02-15T16:15:59.238Z,28.52
2023-02-15T16:21:03.010Z,31.52
2023-02-15T16:26:14.355Z,33.47
2023-02-15T16:31:17.988Z,45.95
2023-02-15T16:36:26.759Z,48.22
2023-02-15T16:41:30.765Z,47.42
2023-02-15T16:46:37.846Z,32.50
2023-02-15T16:51:45.533Z,29.70
2023-02-15T16:56:48.315Z,34.20
2023-02-15T17:01:52.580Z,42.13
2023-02-15T17:07:21.445Z,44.78
2023-02-15T17:12:56.450Z,36.80
2023-02-15T17:18:06.367Z,35.33
2023-02-15T17:23:19.689Z,32.60
2023-02-15T17:28:32.760Z,41.22
2023-02-15T17:33:35.338Z,42.85
2023-02-15T17:38:39.560Z,53.55
2023-02-15T17:43:43.411Z,62.58
2023-02-15T17:48:49.291Z,56.33
2023-02-15T17:54:10.634Z,41.50
2023-02-15T17:59:14.479Z,43.85
2023-02-15T18:04:35.117Z,51.17
2023-02-15T18:09:55.928Z,64.18
2023-02-15T18:14:59.585Z,50.33
2023-02-15T18:20:06.002Z,35.63
2023-02-15T18:25:14.957Z,40.72
2023-02-15T18:30:21.876Z,46.45
2023-02-15T18:35:31.422Z,58.33
2023-02-15T18:40:36.306Z,49.37
2023-02-15T18:45:40.502Z,50.28
2023-02-15T18:50:42.756Z,58.85
2023-02-15T18:55:45.189Z,61.15
2023-02-15T19:00:49.238Z,58.97
2023-02-15T19:05:51.499Z,52.85
2023-02-15T19:10:53.793Z,48.90
2023-02-15T19:15:56.214Z,58.22
2023-02-15T19:20:58.472Z,66.68
2023-02-15T19:26:01.820Z,65.63
2023-02-15T19:31:04.366Z,63.35
2023-02-15T19:36:17.797Z,72.65
2023-02-15T19:41:33.453Z,60.33
2023-02-15T19:46:37.398Z,61.00
2023-02-15T19:51:40.446Z,56.35
2023-02-15T19:56:42.651Z,66.30
2023-02-15T20:01:44.817Z,54.22
2023-02-15T20:06:49.224Z,63.88
2023-02-15T20:11:55.520Z,67.38
2023-02-15T20:16:57.627Z,85.03
2023-02-15T20:22:14.138Z,77.20
2023-02-15T20:27:18.612Z,76.97
2023-02-15T20:32:21.030Z,68.03
2023-02-15T20:37:29.283Z,70.28
2023-02-15T20:42:31.472Z,74.50
2023-02-15T20:47:33.589Z,60.83
2023-02-15T20:52:35.906Z,69.43
2023-02-15T20:57:38.269Z,69.72
2023-02-15T21:02:43.296Z,70.78
2023-02-15T21:07:46.151Z,85.13
2023-02-15T21:12:49.178Z,85.93
2023-02-15T21:17:51.544Z,79.65
2023-02-15T21:22:54.121Z,79.18
2023-02-15T21:27:56.395Z,80.70
2023-02-15T21:32:58.542Z,86.35
2023-02-15T21:38:00.789Z,77.00
2023-02-15T21:43:21.580Z,69.55
2023-02-15T21:48:23.807Z,76.10
2023-02-15T21:53:30.872Z,81.57
2023-02-15T21:58:36.785Z,78.95
2023-02-15T22:09:27.278Z,74.78
2023-02-15T22:14:37.662Z,77.38
2023-02-15T22:24:42.692Z,92.32
2023-02-15T22:29:45.059Z,83.88
2023-02-15T22:34:47.445Z,68.53
2023-02-15T22:39:49.765Z,62.38
2023-02-15T22:44:54.656Z,64.55
2023-02-15T22:49:56.859Z,74.07
2023-02-15T22:54:58.967Z,65.30
2023-02-15T23:00:04.432Z,68.00
2023-02-15T23:05:06.764Z,64.85
2023-02-15T23:10:21.416Z,62.88
2023-02-15T23:15:23.672Z,52.97
2023-02-15T23:20:26.318Z,53.45
2023-02-15T23:25:28.503Z,46.22
2023-02-15T23:30:30.833Z,49.67
2023-02-15T23:35:33.573Z,51.55
2023-02-15T23:41:11.113Z,49.10
2023-02-15T23:46:25.732Z,49.38
2023-02-15T23:51:32.296Z,49.30
2023-02-15T23:56:34.841Z,41.65
